createdAt,value
2018-05-26T00:00:39.383Z,72.70
2018-05-26T00:03:06.883Z,72.90
2018-05-26T00:05:34.387Z,73.10
2018-05-26T00:08:01.906Z,73.40
2018-05-26T00:10:29.449Z,73.30
2018-05-26T00:12:57.943Z,73.40
2018-05-26T00:15:25.483Z,73.40
2018-05-26T00:17:53.759Z,73.70
2018-05-26T00:20:21.281Z,73.70
2018-05-26T00:22:55.258Z,74.00
2018-05-26T00:25:22.799Z,73.90
2018-05-26T00:27:50.312Z,74.00
2018-05-26T00:30:18.620Z,74.40
2018-05-26T00:32:46.134Z,74.30
2018-05-26T00:38:08.805Z,74.30
2018-05-26T00:40:36.341Z,74.40
2018-05-26T00:43:03.836Z,75.70
2018-05-26T00:45:31.392Z,74.80
2018-05-26T00:47:58.913Z,75.40
2018-05-26T00:50:26.410Z,75.10
2018-05-26T00:52:53.925Z,75.40
2018-05-26T00:55:21.437Z,75.30
2018-05-26T00:57:48.978Z,75.20
2018-05-26T01:00:36.674Z,75.20
2018-05-26T01:03:04.193Z,75.30
2018-05-26T01:05:31.726Z,75.50
2018-05-26T01:07:59.250Z,75.60
2018-05-26T01:10:26.779Z,75.60
2018-05-26T01:12:54.289Z,75.70
2018-05-26T01:15:21.820Z,75.80
2018-05-26T01:17:49.347Z,76.10
2018-05-26T01:20:16.871Z,76.50
2018-05-26T01:28:41.475Z,76.80
2018-05-26T01:31:08.999Z,77.00
2018-05-26T01:33:36.508Z,76.80
2018-05-26T01:36:04.025Z,77.00
2018-05-26T01:38:31.533Z,77.20
2018-05-26T01:40:59.822Z,77.70
2018-05-26T01:43:27.320Z,77.70
2018-05-26T01:45:54.864Z,78.60
2018-05-26T01:48:22.408Z,78.40
2018-05-26T01:51:03.130Z,78.70
2018-05-26T01:53:30.625Z,78.80
2018-05-26T01:55:58.936Z,78.80
2018-05-26T01:58:26.496Z,78.80
2018-05-26T02:00:54.008Z,78.80
2018-05-26T02:03:21.533Z,78.70
2018-05-26T02:05:49.055Z,79.20
2018-05-26T02:08:16.567Z,79.00
2018-05-26T02:10:44.089Z,79.80
2018-05-26T02:13:12.387Z,80.90
2018-05-26T02:15:39.912Z,80.90
2018-05-26T02:18:07.488Z,81.00
2018-05-26T02:20:35.767Z,80.80
2018-05-26T02:23:03.302Z,80.70
2018-05-26T02:25:30.814Z,80.50
2018-05-26T02:27:59.100Z,80.40
2018-05-26T02:30:26.645Z,80.40
2018-05-26T02:32:55.140Z,80.60
2018-05-26T02:35:29.731Z,81.10
2018-05-26T02:37:57.486Z,81.10
2018-05-26T02:40:25.229Z,80.90
2018-05-26T02:42:52.992Z,80.70
2018-05-26T02:45:20.634Z,81.50
2018-05-26T02:47:49.186Z,80.70
2018-05-26T02:50:16.726Z,80.70
2018-05-26T02:52:44.306Z,80.60
2018-05-26T02:55:12.048Z,80.70
2018-05-26T03:00:33.077Z,80.60
2018-05-26T03:03:00.619Z,80.90
2018-05-26T03:05:33.925Z,81.20
2018-05-26T03:08:07.058Z,81.50
2018-05-26T03:10:40.221Z,81.50
2018-05-26T03:13:13.355Z,81.40
2018-05-26T03:15:40.885Z,81.60
2018-05-26T03:18:08.399Z,81.40
2018-05-26T03:20:49.594Z,81.90
2018-05-26T03:23:17.120Z,81.80
2018-05-26T03:25:44.629Z,81.40
2018-05-26T03:28:12.133Z,81.70
2018-05-26T03:30:39.641Z,81.70
2018-05-26T03:33:07.170Z,81.70
2018-05-26T03:35:34.670Z,81.80
2018-05-26T03:38:02.255Z,81.70
2018-05-26T03:40:29.772Z,81.70
2018-05-26T03:42:58.068Z,82.40
2018-05-26T03:45:25.593Z,81.50
2018-05-26T03:47:53.126Z,81.50
2018-05-26T03:50:20.645Z,82.60
2018-05-26T03:52:48.163Z,83.30
2018-05-26T03:55:36.553Z,83.40
2018-05-26T03:58:15.813Z,82.90
2018-05-26T04:00:43.337Z,82.90
2018-05-26T04:03:12.471Z,83.30
2018-05-26T04:05:39.985Z,83.70
2018-05-26T04:08:07.493Z,83.30
2018-05-26T04:10:35.014Z,83.30
2018-05-26T04:13:02.548Z,83.10
2018-05-26T04:15:30.061Z,83.10
2018-05-26T04:17:57.585Z,82.80
2018-05-26T04:20:25.109Z,82.90
2018-05-26T04:22:53.385Z,83.30
2018-05-26T04:25:21.678Z,83.30
2018-05-26T04:27:49.181Z,83.40
2018-05-26T04:30:16.697Z,83.00
2018-05-26T04:32:44.228Z,82.90
2018-05-26T04:35:11.742Z,83.10
2018-05-26T04:37:39.294Z,83.10
2018-05-26T04:40:06.817Z,83.60
2018-05-26T04:42:34.347Z,83.70
2018-05-26T04:45:01.912Z,83.60
2018-05-26T04:47:29.442Z,83.80
2018-05-26T04:49:56.965Z,83.60
2018-05-26T04:52:24.482Z,83.60
2018-05-26T04:54:52.025Z,83.80
2018-05-26T04:57:20.338Z,83.40
2018-05-26T04:59:47.869Z,83.40
2018-05-26T05:02:15.375Z,83.90
2018-05-26T05:04:42.918Z,83.70
2018-05-26T05:07:10.426Z,83.70
2018-05-26T05:09:37.962Z,83.60
2018-05-26T05:12:05.475Z,82.90
2018-05-26T05:14:33.039Z,83.20
2018-05-26T05:17:00.627Z,83.30
2018-05-26T05:19:28.903Z,82.90
2018-05-26T05:21:57.198Z,82.60
2018-05-26T05:24:25.485Z,82.40
2018-05-26T05:26:52.990Z,82.30
2018-05-26T05:29:43.866Z,82.90
2018-05-26T05:32:11.379Z,82.40
2018-05-26T05:34:38.900Z,82.60
2018-05-26T05:37:07.191Z,81.70
2018-05-26T05:39:34.709Z,81.70
2018-05-26T05:42:02.263Z,81.50
2018-05-26T05:44:30.540Z,81.00
2018-05-26T05:46:58.870Z,80.60
2018-05-26T05:49:26.400Z,80.60
2018-05-26T05:54:59.837Z,80.70
2018-05-26T05:57:27.365Z,80.90
2018-05-26T05:59:55.649Z,80.40
2018-05-26T06:02:23.952Z,80.70
2018-05-26T06:04:51.473Z,80.70
2018-05-26T06:07:19.000Z,79.80
2018-05-26T06:09:46.527Z,79.60
2018-05-26T06:12:14.069Z,79.80
2018-05-26T06:14:42.345Z,79.60
2018-05-26T06:17:10.635Z,79.60
2018-05-26T06:19:38.923Z,79.30
2018-05-26T06:22:06.445Z,79.30
2018-05-26T06:24:33.951Z,79.30
2018-05-26T06:27:02.257Z,78.80
2018-05-26T06:29:29.745Z,78.70
2018-05-26T06:31:57.248Z,77.90
2018-05-26T06:34:25.580Z,78.70
2018-05-26T06:36:53.111Z,78.70
2018-05-26T06:39:20.626Z,78.20
2018-05-26T06:41:48.130Z,77.70
2018-05-26T06:44:16.400Z,77.90
2018-05-26T06:46:43.922Z,77.70
2018-05-26T06:49:11.441Z,77.70
2018-05-26T06:51:39.005Z,77.00
2018-05-26T06:54:07.326Z,77.40
2018-05-26T06:56:34.863Z,77.30
2018-05-26T06:59:02.426Z,76.60
2018-05-26T07:01:29.970Z,76.50
2018-05-26T07:03:58.249Z,74.40
2018-05-26T07:06:26.521Z,74.20
2018-05-26T07:08:54.052Z,74.10
2018-05-26T07:11:21.589Z,73.90
2018-05-26T07:13:49.131Z,72.20
2018-05-26T07:16:17.472Z,73.60
2018-05-26T07:18:45.009Z,73.50
2018-05-26T07:21:12.553Z,73.10
2018-05-26T07:23:41.150Z,71.90
2018-05-26T07:26:08.773Z,71.60
2018-05-26T07:28:36.909Z,71.90
2018-05-26T07:31:04.420Z,69.60
2018-05-26T07:33:31.943Z,69.20
2018-05-26T07:35:59.467Z,70.00
2018-05-26T07:38:26.998Z,68.50
2018-05-26T07:40:54.511Z,68.50
2018-05-26T07:43:22.070Z,68.10
2018-05-26T07:45:49.607Z,68.10
2018-05-26T07:48:17.911Z,67.00
2018-05-26T07:50:45.414Z,66.90
2018-05-26T07:53:13.037Z,66.40
2018-05-26T07:55:40.508Z,65.60
2018-05-26T07:58:08.037Z,66.50
2018-05-26T08:00:35.619Z,65.60
2018-05-26T08:03:03.123Z,64.60
2018-05-26T08:05:30.734Z,64.70
2018-05-26T08:07:59.463Z,63.30
2018-05-26T08:10:26.995Z,63.30
2018-05-26T08:12:55.324Z,64.80
2018-05-26T08:15:22.856Z,64.10
2018-05-26T08:17:50.395Z,62.70
2018-05-26T08:20:18.704Z,62.50
2018-05-26T08:22:46.242Z,62.30
2018-05-26T08:25:13.749Z,63.20
2018-05-26T08:27:41.273Z,60.50
2018-05-26T08:30:08.782Z,61.10
2018-05-26T08:32:36.320Z,61.10
2018-05-26T08:35:04.588Z,59.10
2018-05-26T08:37:32.878Z,57.80
2018-05-26T08:40:01.283Z,57.60
2018-05-26T08:42:28.801Z,57.60
2018-05-26T08:44:56.309Z,55.90
2018-05-26T08:47:23.834Z,54.30
2018-05-26T08:49:51.338Z,53.50
2018-05-26T08:52:18.834Z,53.10
2018-05-26T08:54:46.361Z,52.70
2018-05-26T08:57:13.863Z,53.80
2018-05-26T08:59:41.391Z,51.30
2018-05-26T09:02:08.958Z,52.10
2018-05-26T09:04:36.462Z,54.10
2018-05-26T09:07:03.994Z,54.00
2018-05-26T09:09:31.489Z,52.70
2018-05-26T09:11:59.001Z,53.70
2018-05-26T09:14:27.483Z,51.00
2018-05-26T09:16:55.008Z,50.80
2018-05-26T09:19:22.534Z,50.10
2018-05-26T09:21:50.071Z,49.90
2018-05-26T09:24:17.641Z,48.10
2018-05-26T09:26:45.134Z,49.20
2018-05-26T09:29:12.656Z,49.60
2018-05-26T09:31:40.960Z,50.40
2018-05-26T09:34:08.473Z,50.40
2018-05-26T09:36:35.997Z,50.70
2018-05-26T09:39:03.513Z,51.90
2018-05-26T09:41:31.007Z,50.00
2018-05-26T09:43:58.544Z,49.30
2018-05-26T09:46:26.820Z,49.00
2018-05-26T09:48:55.111Z,48.30
2018-05-26T09:51:23.387Z,48.70
2018-05-26T09:53:51.670Z,50.70
2018-05-26T09:56:19.978Z,50.30
2018-05-26T09:58:47.478Z,50.20
2018-05-26T10:01:14.976Z,51.40
2018-05-26T10:03:42.473Z,51.00
2018-05-26T10:06:10.025Z,49.00
2018-05-26T10:08:37.535Z,48.80
2018-05-26T10:11:05.061Z,50.40
2018-05-26T10:13:32.659Z,49.70
2018-05-26T10:16:00.154Z,48.60
2018-05-26T10:18:27.702Z,49.50
2018-05-26T10:20:55.273Z,49.20
2018-05-26T10:23:22.790Z,49.30
2018-05-26T10:25:50.284Z,48.90
2018-05-26T10:28:17.837Z,49.10
2018-05-26T10:30:45.340Z,48.40
2018-05-26T10:33:12.856Z,48.50
2018-05-26T10:35:40.429Z,46.80
2018-05-26T10:38:07.938Z,47.20
2018-05-26T10:40:36.205Z,46.90
2018-05-26T10:43:03.711Z,46.90
2018-05-26T10:45:38.957Z,45.70
2018-05-26T10:48:06.450Z,47.10
2018-05-26T10:50:33.982Z,46.10
2018-05-26T10:53:01.497Z,45.60
2018-05-26T10:55:29.070Z,43.20
2018-05-26T10:57:56.561Z,44.60
2018-05-26T11:00:24.075Z,44.10
2018-05-26T11:02:51.604Z,47.40
2018-05-26T11:05:19.130Z,46.60
2018-05-26T11:07:47.396Z,45.00
2018-05-26T11:10:14.908Z,45.00
2018-05-26T11:12:42.410Z,43.30
2018-05-26T11:15:09.918Z,45.30
2018-05-26T11:17:37.450Z,44.70
2018-05-26T11:20:04.934Z,44.30
2018-05-26T11:22:33.206Z,43.30
2018-05-26T11:25:00.735Z,43.40
2018-05-26T11:27:28.263Z,42.10
2018-05-26T11:29:55.763Z,43.90
2018-05-26T11:32:23.253Z,45.30
2018-05-26T11:34:50.763Z,42.50
2018-05-26T11:37:19.081Z,42.30
2018-05-26T11:39:46.592Z,42.30
2018-05-26T11:42:14.115Z,43.60
2018-05-26T11:44:41.644Z,43.70
2018-05-26T11:47:09.159Z,45.30
2018-05-26T11:49:37.447Z,41.60
2018-05-26T11:52:05.712Z,43.00
2018-05-26T11:54:33.224Z,43.00
2018-05-26T11:57:00.829Z,43.30
2018-05-26T11:59:28.328Z,42.90
2018-05-26T12:01:56.643Z,42.50
2018-05-26T12:04:24.135Z,42.50
2018-05-26T12:06:51.636Z,42.80
2018-05-26T12:09:19.923Z,41.60
2018-05-26T12:11:47.424Z,41.50
2018-05-26T12:14:14.963Z,41.40
2018-05-26T12:16:42.497Z,40.40
2018-05-26T12:19:10.785Z,43.70
2018-05-26T12:21:38.307Z,43.70
2018-05-26T12:24:05.821Z,41.40
2018-05-26T12:26:33.313Z,42.10
2018-05-26T12:29:00.860Z,39.70
2018-05-26T12:31:28.386Z,39.40
2018-05-26T12:33:55.908Z,40.50
2018-05-26T12:36:23.413Z,42.50
2018-05-26T12:38:50.906Z,41.00
2018-05-26T12:41:18.438Z,40.00
2018-05-26T12:43:45.955Z,43.50
2018-05-26T12:46:13.455Z,40.70
2018-05-26T12:48:40.944Z,39.60
2018-05-26T12:51:08.530Z,38.20
2018-05-26T12:53:36.974Z,40.30
2018-05-26T12:56:05.248Z,39.90
2018-05-26T12:58:32.789Z,39.90
2018-05-26T13:01:00.329Z,40.40
2018-05-26T13:03:27.837Z,41.90
2018-05-26T13:05:55.340Z,41.80
2018-05-26T13:08:22.918Z,39.40
2018-05-26T13:10:50.419Z,38.50
2018-05-26T13:13:17.921Z,40.00
2018-05-26T13:15:46.196Z,41.00
2018-05-26T13:18:14.457Z,41.20
2018-05-26T13:20:41.946Z,41.20
2018-05-26T13:23:10.226Z,41.80
2018-05-26T13:25:38.482Z,43.00
2018-05-26T13:28:06.013Z,42.90
2018-05-26T13:30:33.556Z,42.10
2018-05-26T13:33:01.128Z,41.30
2018-05-26T13:35:28.622Z,42.30
2018-05-26T13:37:56.141Z,41.40
2018-05-26T13:40:23.645Z,41.10
2018-05-26T13:42:51.161Z,41.90
2018-05-26T13:45:18.682Z,39.70
2018-05-26T13:47:46.212Z,40.70
2018-05-26T13:50:13.712Z,40.90
2018-05-26T13:52:41.306Z,39.40
2018-05-26T13:55:08.841Z,39.50
2018-05-26T13:57:36.299Z,40.40
2018-05-26T14:00:03.853Z,40.50
2018-05-26T14:02:31.346Z,41.00
2018-05-26T14:04:59.653Z,41.30
2018-05-26T14:07:27.179Z,41.20
2018-05-26T14:09:54.721Z,42.70
2018-05-26T14:12:22.220Z,42.70
2018-05-26T14:14:49.735Z,42.60
2018-05-26T14:17:17.271Z,41.80
2018-05-26T14:19:44.773Z,41.70
2018-05-26T14:22:12.288Z,42.70
2018-05-26T14:24:40.648Z,41.60
2018-05-26T14:27:08.162Z,41.50
2018-05-26T14:29:35.681Z,41.70
2018-05-26T14:32:03.181Z,42.60
2018-05-26T14:34:30.716Z,42.60
2018-05-26T14:36:58.301Z,42.50
2018-05-26T14:39:25.841Z,43.20
2018-05-26T14:41:53.341Z,43.60
2018-05-26T14:44:20.875Z,42.50
2018-05-26T14:46:49.143Z,42.70
2018-05-26T14:49:16.637Z,42.60
2018-05-26T14:51:44.146Z,43.90
2018-05-26T14:54:11.639Z,43.00
2018-05-26T14:56:39.912Z,44.50
2018-05-26T14:59:07.429Z,44.50
2018-05-26T15:01:34.937Z,45.70
2018-05-26T15:04:02.459Z,45.90
2018-05-26T15:06:29.972Z,46.20
2018-05-26T15:08:57.477Z,46.60
2018-05-26T15:11:24.965Z,44.70
2018-05-26T15:13:52.492Z,44.10
2018-05-26T15:16:19.992Z,43.70
2018-05-26T15:18:47.511Z,43.80
2018-05-26T15:21:15.804Z,43.70
2018-05-26T15:23:43.322Z,43.70
2018-05-26T15:26:10.898Z,44.50
2018-05-26T15:28:38.423Z,44.10
2018-05-26T15:31:05.972Z,43.30
2018-05-26T15:33:33.465Z,43.90
2018-05-26T15:36:00.970Z,44.60
2018-05-26T15:38:29.244Z,46.70
2018-05-26T15:40:57.752Z,46.50
2018-05-26T15:43:25.276Z,46.50
2018-05-26T15:45:53.578Z,45.50
2018-05-26T15:48:21.076Z,45.50
2018-05-26T15:50:48.593Z,46.10
2018-05-26T15:53:16.090Z,46.70
2018-05-26T15:55:43.591Z,46.50
2018-05-26T15:58:11.089Z,46.00
2018-05-26T16:00:39.434Z,46.00
2018-05-26T16:03:06.944Z,46.00
2018-05-26T16:05:35.209Z,47.40
2018-05-26T16:08:02.714Z,47.40
2018-05-26T16:10:30.207Z,46.60
2018-05-26T16:12:57.720Z,46.10
2018-05-26T16:15:25.221Z,47.60
2018-05-26T16:17:52.727Z,48.70
2018-05-26T16:20:20.209Z,47.60
2018-05-26T16:22:47.722Z,46.80
2018-05-26T16:25:15.230Z,45.90
2018-05-26T16:27:43.530Z,46.30
2018-05-26T16:30:11.051Z,46.30
2018-05-26T16:32:38.577Z,45.80
2018-05-26T16:35:06.086Z,46.70
2018-05-26T16:37:33.602Z,46.10
2018-05-26T16:40:01.150Z,45.80
2018-05-26T16:42:28.647Z,46.30
2018-05-26T16:44:56.152Z,45.60
2018-05-26T16:47:24.422Z,45.90
2018-05-26T16:49:51.962Z,45.90
2018-05-26T16:52:19.480Z,46.60
2018-05-26T16:54:47.059Z,46.70
2018-05-26T16:57:14.600Z,44.50
2018-05-26T16:59:42.875Z,44.60
2018-05-26T17:02:11.153Z,45.00
2018-05-26T17:04:39.422Z,45.70
2018-05-26T17:07:07.684Z,46.00
2018-05-26T17:09:35.177Z,46.00
2018-05-26T17:12:02.686Z,46.20
2018-05-26T17:14:30.949Z,45.90
2018-05-26T17:16:58.429Z,45.80
2018-05-26T17:19:25.938Z,46.20
2018-05-26T17:21:54.202Z,47.80
2018-05-26T17:24:22.695Z,47.30
2018-05-26T17:26:50.994Z,46.30
2018-05-26T17:29:19.273Z,46.60
2018-05-26T17:31:46.773Z,46.50
2018-05-26T17:34:14.274Z,47.00
2018-05-26T17:36:41.814Z,47.20
2018-05-26T17:39:10.645Z,46.90
2018-05-26T17:41:38.151Z,46.90
2018-05-26T17:44:05.673Z,46.40
2018-05-26T17:46:33.170Z,46.90
2018-05-26T17:49:00.663Z,46.50
2018-05-26T17:51:28.171Z,46.50
2018-05-26T17:53:56.441Z,46.70
2018-05-26T17:56:24.762Z,46.00
2018-05-26T17:58:52.271Z,45.90
2018-05-26T18:01:21.497Z,46.40
2018-05-26T18:03:49.787Z,46.40
2018-05-26T18:06:17.276Z,46.40
2018-05-26T18:08:45.611Z,46.30
2018-05-26T18:11:13.893Z,47.30
2018-05-26T18:13:41.426Z,46.50
2018-05-26T18:16:08.963Z,47.00
2018-05-26T18:18:36.472Z,47.00
2018-05-26T18:21:03.976Z,47.30
2018-05-26T18:23:31.736Z,46.80
2018-05-26T18:26:00.012Z,46.90
2018-05-26T18:28:27.541Z,46.90
2018-05-26T18:30:55.037Z,46.70
2018-05-26T18:33:23.310Z,46.80
2018-05-26T18:35:50.827Z,46.70
2018-05-26T18:38:18.308Z,47.40
2018-05-26T18:40:45.820Z,47.20
2018-05-26T18:43:13.340Z,46.90
2018-05-26T18:45:40.844Z,47.00
2018-05-26T18:48:08.338Z,47.50
2018-05-26T18:50:35.854Z,47.40
2018-05-26T18:53:03.351Z,47.60
2018-05-26T18:55:30.854Z,47.60
2018-05-26T18:57:58.346Z,47.90
2018-05-26T19:00:26.629Z,48.40
2018-05-26T19:02:54.919Z,48.40
2018-05-26T19:05:23.203Z,48.70
2018-05-26T19:07:51.491Z,48.70
2018-05-26T19:12:48.758Z,48.80
2018-05-26T19:15:16.284Z,49.00
2018-05-26T19:17:43.799Z,48.90
2018-05-26T19:20:11.342Z,48.60
2018-05-26T19:22:39.630Z,49.80
2018-05-26T19:25:07.170Z,49.70
2018-05-26T19:27:34.704Z,49.60
2018-05-26T19:30:02.302Z,49.90
2018-05-26T19:32:30.602Z,50.20
2018-05-26T19:34:58.924Z,50.20
2018-05-26T19:37:26.455Z,50.20
2018-05-26T19:39:54.761Z,50.60
2018-05-26T19:42:22.291Z,50.60
2018-05-26T19:44:50.593Z,50.70
2018-05-26T19:47:18.119Z,50.60
2018-05-26T19:49:45.715Z,51.10
2018-05-26T19:52:14.323Z,51.10
2018-05-26T19:54:41.857Z,51.10
2018-05-26T19:57:10.318Z,51.20
2018-05-26T19:59:37.848Z,51.20
2018-05-26T20:02:05.700Z,50.90
2018-05-26T20:04:33.281Z,51.00
2018-05-26T20:07:01.140Z,50.60
2018-05-26T20:09:28.796Z,50.60
2018-05-26T20:11:56.493Z,50.60
2018-05-26T20:14:23.997Z,50.60
2018-05-26T20:16:51.545Z,50.40
2018-05-26T20:19:19.401Z,50.80
2018-05-26T20:21:47.326Z,51.00
2018-05-26T20:24:14.917Z,50.60
2018-05-26T20:26:42.430Z,50.70
2018-05-26T20:29:10.872Z,50.90
2018-05-26T20:31:39.066Z,50.30
2018-05-26T20:34:06.583Z,50.40
2018-05-26T20:36:34.107Z,50.40
2018-05-26T20:39:02.401Z,50.20
2018-05-26T20:41:29.968Z,50.20
2018-05-26T20:43:57.548Z,50.30
2018-05-26T20:46:25.092Z,50.10
2018-05-26T20:48:52.641Z,49.70
2018-05-26T20:51:20.190Z,50.10
2018-05-26T20:53:47.761Z,49.90
2018-05-26T20:56:15.270Z,49.60
2018-05-26T20:58:43.561Z,49.30
2018-05-26T21:01:11.141Z,49.30
2018-05-26T21:03:38.695Z,50.00
2018-05-26T21:06:06.221Z,49.70
2018-05-26T21:08:33.728Z,49.80
2018-05-26T21:11:01.224Z,49.90
2018-05-26T21:13:28.767Z,49.50
2018-05-26T21:15:56.342Z,49.30
2018-05-26T21:18:23.880Z,49.10
2018-05-26T21:20:51.393Z,49.10
2018-05-26T21:23:18.962Z,49.00
2018-05-26T21:25:47.249Z,49.00
2018-05-26T21:28:15.561Z,48.90
2018-05-26T21:30:43.084Z,48.90
2018-05-26T21:33:10.654Z,48.80
2018-05-26T21:35:38.937Z,49.20
2018-05-26T21:38:06.454Z,49.10
2018-05-26T21:40:33.966Z,49.20
2018-05-26T21:43:02.258Z,49.40
2018-05-26T21:45:30.569Z,49.50
2018-05-26T21:47:58.113Z,49.50
2018-05-26T21:50:26.414Z,49.30
2018-05-26T21:52:54.243Z,49.30
2018-05-26T21:55:21.761Z,49.70
2018-05-26T21:57:49.305Z,49.50
2018-05-26T22:00:16.789Z,49.70
2018-05-26T22:02:44.325Z,49.90
2018-05-26T22:05:11.855Z,50.10
2018-05-26T22:07:39.461Z,50.00
2018-05-26T22:10:06.999Z,50.00
2018-05-26T22:12:35.284Z,50.30
2018-05-26T22:15:03.556Z,50.50
2018-05-26T22:17:31.974Z,50.90
2018-05-26T22:19:59.473Z,50.80
2018-05-26T22:22:26.997Z,50.70
2018-05-26T22:24:54.513Z,50.60
2018-05-26T22:27:22.036Z,50.40
2018-05-26T22:29:49.533Z,50.70
2018-05-26T22:32:17.043Z,50.70
2018-05-26T22:34:44.593Z,50.50
2018-05-26T22:37:12.896Z,51.00
2018-05-26T22:39:40.625Z,51.00
2018-05-26T22:42:08.909Z,51.00
2018-05-26T22:44:37.210Z,51.30
2018-05-26T22:47:04.747Z,51.30
2018-05-26T22:49:32.279Z,51.30
2018-05-26T22:51:59.807Z,51.80
2018-05-26T22:54:27.334Z,51.70
2018-05-26T22:56:54.840Z,51.40
2018-05-26T22:59:22.357Z,51.40
2018-05-26T23:01:50.642Z,51.80
2018-05-26T23:04:18.198Z,51.30
2018-05-26T23:06:45.748Z,51.40
2018-05-26T23:09:13.262Z,51.20
2018-05-26T23:11:40.792Z,51.30
2018-05-26T23:14:08.333Z,51.70
2018-05-26T23:16:35.915Z,51.60
2018-05-26T23:19:03.430Z,51.70
2018-05-26T23:21:30.972Z,52.70
2018-05-26T23:23:59.319Z,52.00
2018-05-26T23:26:26.926Z,51.90
2018-05-26T23:28:55.222Z,52.50
2018-05-26T23:31:22.784Z,52.50
2018-05-26T23:33:50.312Z,52.20
2018-05-26T23:36:20.328Z,52.10
2018-05-26T23:38:47.923Z,52.40
2018-05-26T23:41:15.455Z,52.50
2018-05-26T23:43:42.979Z,52.50
2018-05-26T23:46:10.520Z,52.30
2018-05-26T23:48:38.078Z,52.00
2018-05-26T23:51:05.621Z,52.30
2018-05-26T23:53:33.911Z,51.90
2018-05-26T23:56:02.169Z,51.90
2018-05-26T23:58:29.689Z,51.90
